sensor_id;sensor_type;location;lat;lon;timestamp;pressure;altitude;pressure_sealevel;temperature;humidity
56671;BME280;42545;50.054;8.306;2023-02-13T00:00:01;102098.66;;;4.58;100.00
56671;BME280;42545;50.054;8.306;2023-02-13T00:02:28;102097.63;;;4.56;100.00
56671;BME280;42545;50.054;8.306;2023-02-13T00:04:55;102097.28;;;4.52;100.00
56671;BME280;42545;50.054;8.306;2023-02-13T00:07:24;102088.31;;;4.48;100.00
56671;BME280;42545;50.054;8.306;2023-02-13T00:09:50;102095.00;;;4.45;100.00
56671;BME280;42545;50.054;8.306;2023-02-13T00:12:17;102076.41;;;4.40;100.00
56671;BME280;42545;50.054;8.306;2023-02-13T00:14:44;102085.13;;;4.40;100.00
56671;BME280;42545;50.054;8.306;2023-02-13T00:17:10;102086.94;;;4.41;100.00
56671;BME280;42545;50.054;8.306;2023-02-13T00:19:37;102078.91;;;4.38;100.00
56671;BME280;42545;50.054;8.306;2023-02-13T00:22:04;102076.28;;;4.38;100.00
56671;BME280;42545;50.054;8.306;2023-02-13T00:24:32;102081.28;;;4.35;100.00
56671;BME280;42545;50.054;8.306;2023-02-13T00:26:58;102082.88;;;4.33;100.00
56671;BME280;42545;50.054;8.306;2023-02-13T00:29:25;102081.72;;;4.30;100.00
56671;BME280;42545;50.054;8.306;2023-02-13T00:31:52;102081.50;;;4.27;100.00
56671;BME280;42545;50.054;8.306;2023-02-13T00:34:18;102085.03;;;4.27;100.00
56671;BME280;42545;50.054;8.306;2023-02-13T00:36:45;102078.75;;;4.25;100.00
56671;BME280;42545;50.054;8.306;2023-02-13T00:39:12;102079.44;;;4.22;100.00
56671;BME280;42545;50.054;8.306;2023-02-13T00:41:40;102080.16;;;4.20;100.00
56671;BME280;42545;50.054;8.306;2023-02-13T00:44:08;102067.63;;;4.16;100.00
56671;BME280;42545;50.054;8.306;2023-02-13T00:46:37;102072.72;;;4.14;100.00
56671;BME280;42545;50.054;8.306;2023-02-13T00:49:04;102067.06;;;4.08;100.00
56671;BME280;42545;50.054;8.306;2023-02-13T00:51:31;102065.34;;;4.09;100.00
56671;BME280;42545;50.054;8.306;2023-02-13T00:53:58;102071.25;;;4.06;100.00
56671;BME280;42545;50.054;8.306;2023-02-13T00:56:25;102070.00;;;4.01;100.00
56671;BME280;42545;50.054;8.306;2023-02-13T00:58:54;102069.66;;;3.96;100.00
56671;BME280;42545;50.054;8.306;2023-02-13T01:01:20;102074.41;;;3.90;100.00
56671;BME280;42545;50.054;8.306;2023-02-13T01:03:47;102072.94;;;3.82;100.00
56671;BME280;42545;50.054;8.306;2023-02-13T01:06:14;102069.75;;;3.74;100.00
56671;BME280;42545;50.054;8.306;2023-02-13T01:08:41;102074.38;;;3.66;100.00
56671;BME280;42545;50.054;8.306;2023-02-13T01:11:08;102073.78;;;3.59;100.00
56671;BME280;42545;50.054;8.306;2023-02-13T01:13:35;102067.28;;;3.54;100.00
56671;BME280;42545;50.054;8.306;2023-02-13T01:16:04;102074.91;;;3.51;100.00
56671;BME280;42545;50.054;8.306;2023-02-13T01:18:31;102071.94;;;3.46;100.00
56671;BME280;42545;50.054;8.306;2023-02-13T01:21:00;102074.53;;;3.46;100.00
56671;BME280;42545;50.054;8.306;2023-02-13T01:23:29;102080.44;;;3.43;100.00
56671;BME280;42545;50.054;8.306;2023-02-13T01:25:56;102083.81;;;3.42;100.00
56671;BME280;42545;50.054;8.306;2023-02-13T01:28:23;102081.09;;;3.41;100.00
56671;BME280;42545;50.054;8.306;2023-02-13T01:30:53;102081.91;;;3.40;100.00
56671;BME280;42545;50.054;8.306;2023-02-13T01:33:22;102080.88;;;3.38;100.00
56671;BME280;42545;50.054;8.306;2023-02-13T01:35:48;102080.63;;;3.35;100.00
56671;BME280;42545;50.054;8.306;2023-02-13T01:38:15;102077.91;;;3.33;100.00
56671;BME280;42545;50.054;8.306;2023-02-13T01:40:46;102085.47;;;3.30;100.00
56671;BME280;42545;50.054;8.306;2023-02-13T01:43:13;102083.69;;;3.29;100.00
56671;BME280;42545;50.054;8.306;2023-02-13T01:45:41;102079.09;;;3.26;100.00
56671;BME280;42545;50.054;8.306;2023-02-13T01:48:12;102079.78;;;3.24;100.00
56671;BME280;42545;50.054;8.306;2023-02-13T01:50:48;102077.59;;;3.18;100.00
56671;BME280;42545;50.054;8.306;2023-02-13T01:53:19;102072.81;;;3.13;100.00
56671;BME280;42545;50.054;8.306;2023-02-13T01:55:52;102074.84;;;3.05;100.00
56671;BME280;42545;50.054;8.306;2023-02-13T01:58:23;102079.00;;;3.03;100.00
56671;BME280;42545;50.054;8.306;2023-02-13T02:00:51;102077.75;;;2.98;100.00
56671;BME280;42545;50.054;8.306;2023-02-13T02:03:22;102074.75;;;2.93;100.00
56671;BME280;42545;50.054;8.306;2023-02-13T02:05:55;102073.47;;;2.88;100.00
56671;BME280;42545;50.054;8.306;2023-02-13T02:08:22;102069.50;;;2.81;100.00
56671;BME280;42545;50.054;8.306;2023-02-13T02:10:50;102067.94;;;2.73;100.00
56671;BME280;42545;50.054;8.306;2023-02-13T02:13:18;102068.75;;;2.72;100.00
56671;BME280;42545;50.054;8.306;2023-02-13T02:15:47;102067.22;;;2.64;100.00
56671;BME280;42545;50.054;8.306;2023-02-13T02:18:16;102067.75;;;2.60;100.00
56671;BME280;42545;50.054;8.306;2023-02-13T02:21:12;102067.50;;;2.57;100.00
56671;BME280;42545;50.054;8.306;2023-02-13T02:23:58;102066.00;;;2.48;100.00
56671;BME280;42545;50.054;8.306;2023-02-13T02:26:52;102061.41;;;2.46;100.00
56671;BME280;42545;50.054;8.306;2023-02-13T02:29:43;102064.56;;;2.42;100.00
56671;BME280;42545;50.054;8.306;2023-02-13T02:32:28;102061.69;;;2.39;100.00
56671;BME280;42545;50.054;8.306;2023-02-13T02:35:18;102062.50;;;2.38;100.00
56671;BME280;42545;50.054;8.306;2023-02-13T02:37:59;102059.09;;;2.39;100.00
56671;BME280;42545;50.054;8.306;2023-02-13T02:40:33;102061.34;;;2.34;100.00
56671;BME280;42545;50.054;8.306;2023-02-13T02:43:17;102061.75;;;2.28;100.00
56671;BME280;42545;50.054;8.306;2023-02-13T02:45:53;102061.38;;;2.24;100.00
56671;BME280;42545;50.054;8.306;2023-02-13T02:48:29;102065.41;;;2.20;100.00
56671;BME280;42545;50.054;8.306;2023-02-13T02:51:20;102063.47;;;2.18;100.00
56671;BME280;42545;50.054;8.306;2023-02-13T02:53:56;102065.06;;;2.16;100.00
56671;BME280;42545;50.054;8.306;2023-02-13T02:56:30;102065.94;;;2.16;100.00
56671;BME280;42545;50.054;8.306;2023-02-13T02:59:03;102061.78;;;2.18;100.00
56671;BME280;42545;50.054;8.306;2023-02-13T03:01:53;102058.50;;;2.21;100.00
56671;BME280;42545;50.054;8.306;2023-02-13T03:04:41;102064.78;;;2.23;100.00
56671;BME280;42545;50.054;8.306;2023-02-13T03:07:32;102067.13;;;2.20;100.00
56671;BME280;42545;50.054;8.306;2023-02-13T03:10:00;102066.97;;;2.18;100.00
56671;BME280;42545;50.054;8.306;2023-02-13T03:12:48;102053.19;;;2.19;100.00
56671;BME280;42545;50.054;8.306;2023-02-13T03:15:35;102053.06;;;2.18;100.00
56671;BME280;42545;50.054;8.306;2023-02-13T03:18:22;102065.16;;;2.17;100.00
56671;BME280;42545;50.054;8.306;2023-02-13T03:21:12;102062.53;;;2.17;100.00
56671;BME280;42545;50.054;8.306;2023-02-13T03:24:01;102058.00;;;2.15;100.00
56671;BME280;42545;50.054;8.306;2023-02-13T03:26:37;102057.88;;;2.13;100.00
56671;BME280;42545;50.054;8.306;2023-02-13T03:29:23;102056.97;;;2.13;100.00
56671;BME280;42545;50.054;8.306;2023-02-13T03:32:17;102064.91;;;2.14;100.00
56671;BME280;42545;50.054;8.306;2023-02-13T03:34:52;102062.94;;;2.11;100.00
56671;BME280;42545;50.054;8.306;2023-02-13T03:37:46;102064.38;;;2.08;100.00
56671;BME280;42545;50.054;8.306;2023-02-13T03:40:26;102057.25;;;2.05;100.00
56671;BME280;42545;50.054;8.306;2023-02-13T03:43:02;102065.72;;;2.03;100.00
56671;BME280;42545;50.054;8.306;2023-02-13T03:45:34;102070.81;;;2.01;100.00
56671;BME280;42545;50.054;8.306;2023-02-13T03:48:24;102067.03;;;1.98;100.00
56671;BME280;42545;50.054;8.306;2023-02-13T03:51:13;102076.00;;;2.01;100.00
56671;BME280;42545;50.054;8.306;2023-02-13T03:53:48;102070.13;;;2.04;100.00
56671;BME280;42545;50.054;8.306;2023-02-13T03:56:19;102069.88;;;2.01;100.00
56671;BME280;42545;50.054;8.306;2023-02-13T03:59:07;102079.25;;;1.99;100.00
56671;BME280;42545;50.054;8.306;2023-02-13T04:01:45;102076.41;;;1.96;100.00
56671;BME280;42545;50.054;8.306;2023-02-13T04:04:21;102072.50;;;1.90;100.00
56671;BME280;42545;50.054;8.306;2023-02-13T04:06:52;102066.00;;;1.85;100.00
56671;BME280;42545;50.054;8.306;2023-02-13T04:09:22;102077.19;;;1.84;100.00
56671;BME280;42545;50.054;8.306;2023-02-13T04:11:55;102074.06;;;1.78;100.00
56671;BME280;42545;50.054;8.306;2023-02-13T04:14:27;102072.78;;;1.73;100.00
56671;BME280;42545;50.054;8.306;2023-02-13T04:17:01;102069.66;;;1.67;100.00
56671;BME280;42545;50.054;8.306;2023-02-13T04:19:30;102074.75;;;1.65;100.00
56671;BME280;42545;50.054;8.306;2023-02-13T04:21:59;102073.56;;;1.62;100.00
56671;BME280;42545;50.054;8.306;2023-02-13T04:24:28;102067.06;;;1.57;100.00
56671;BME280;42545;50.054;8.306;2023-02-13T04:26:55;102072.91;;;1.54;100.00
56671;BME280;42545;50.054;8.306;2023-02-13T04:29:24;102075.25;;;1.51;100.00
56671;BME280;42545;50.054;8.306;2023-02-13T04:31:52;102073.31;;;1.48;100.00
56671;BME280;42545;50.054;8.306;2023-02-13T04:34:19;102068.38;;;1.41;100.00
56671;BME280;42545;50.054;8.306;2023-02-13T04:36:45;102068.91;;;1.37;100.00
56671;BME280;42545;50.054;8.306;2023-02-13T04:39:12;102070.41;;;1.35;100.00
56671;BME280;42545;50.054;8.306;2023-02-13T04:41:41;102059.38;;;1.27;100.00
56671;BME280;42545;50.054;8.306;2023-02-13T04:44:07;102076.81;;;1.28;100.00
56671;BME280;42545;50.054;8.306;2023-02-13T04:46:34;102071.34;;;1.25;100.00
56671;BME280;42545;50.054;8.306;2023-02-13T04:49:01;102072.91;;;1.23;100.00
56671;BME280;42545;50.054;8.306;2023-02-13T04:51:27;102066.66;;;1.21;100.00
56671;BME280;42545;50.054;8.306;2023-02-13T04:53:54;102068.22;;;1.19;100.00
56671;BME280;42545;50.054;8.306;2023-02-13T04:56:20;102065.88;;;1.12;100.00
56671;BME280;42545;50.054;8.306;2023-02-13T04:58:49;102067.00;;;1.05;100.00
56671;BME280;42545;50.054;8.306;2023-02-13T05:01:16;102066.34;;;0.98;100.00
56671;BME280;42545;50.054;8.306;2023-02-13T05:03:43;102063.09;;;0.90;100.00
56671;BME280;42545;50.054;8.306;2023-02-13T05:06:10;102057.34;;;0.84;100.00
56671;BME280;42545;50.054;8.306;2023-02-13T05:08:37;102059.41;;;0.77;100.00
56671;BME280;42545;50.054;8.306;2023-02-13T05:11:04;102048.34;;;0.70;100.00
56671;BME280;42545;50.054;8.306;2023-02-13T05:13:30;102070.47;;;0.75;100.00
56671;BME280;42545;50.054;8.306;2023-02-13T05:15:58;102066.78;;;0.73;100.00
56671;BME280;42545;50.054;8.306;2023-02-13T05:18:25;102068.34;;;0.71;100.00
56671;BME280;42545;50.054;8.306;2023-02-13T05:20:52;102063.13;;;0.71;100.00
56671;BME280;42545;50.054;8.306;2023-02-13T05:23:32;102063.00;;;0.69;100.00
56671;BME280;42545;50.054;8.306;2023-02-13T05:25:59;102063.66;;;0.67;100.00
56671;BME280;42545;50.054;8.306;2023-02-13T05:28:25;102069.22;;;0.61;100.00
56671;BME280;42545;50.054;8.306;2023-02-13T05:31:11;102074.13;;;0.58;100.00
56671;BME280;42545;50.054;8.306;2023-02-13T05:33:38;102080.75;;;0.54;100.00
56671;BME280;42545;50.054;8.306;2023-02-13T05:36:06;102074.38;;;0.51;100.00
56671;BME280;42545;50.054;8.306;2023-02-13T05:38:33;102070.88;;;0.50;100.00
56671;BME280;42545;50.054;8.306;2023-02-13T05:41:00;102072.13;;;0.45;100.00
56671;BME280;42545;50.054;8.306;2023-02-13T05:43:27;102066.78;;;0.44;100.00
56671;BME280;42545;50.054;8.306;2023-02-13T05:46:00;102075.25;;;0.41;100.00
56671;BME280;42545;50.054;8.306;2023-02-13T05:48:29;102070.56;;;0.37;100.00
56671;BME280;42545;50.054;8.306;2023-02-13T05:50:56;102071.47;;;0.37;100.00
56671;BME280;42545;50.054;8.306;2023-02-13T05:53:25;102067.81;;;0.35;100.00
56671;BME280;42545;50.054;8.306;2023-02-13T05:55:54;102073.16;;;0.37;100.00
56671;BME280;42545;50.054;8.306;2023-02-13T05:58:21;102074.06;;;0.37;100.00
56671;BME280;42545;50.054;8.306;2023-02-13T06:00:47;102076.50;;;0.36;100.00
56671;BME280;42545;50.054;8.306;2023-02-13T06:03:14;102086.00;;;0.35;100.00
56671;BME280;42545;50.054;8.306;2023-02-13T06:05:43;102083.41;;;0.35;100.00
56671;BME280;42545;50.054;8.306;2023-02-13T06:08:09;102083.41;;;0.35;100.00
56671;BME280;42545;50.054;8.306;2023-02-13T06:10:38;102076.25;;;0.33;100.00
56671;BME280;42545;50.054;8.306;2023-02-13T06:13:05;102064.41;;;0.26;100.00
56671;BME280;42545;50.054;8.306;2023-02-13T06:15:31;102073.88;;;0.26;100.00
56671;BME280;42545;50.054;8.306;2023-02-13T06:17:58;102077.09;;;0.23;100.00
56671;BME280;42545;50.054;8.306;2023-02-13T06:20:25;102066.31;;;0.18;100.00
56671;BME280;42545;50.054;8.306;2023-02-13T06:22:53;102075.00;;;0.19;100.00
56671;BME280;42545;50.054;8.306;2023-02-13T06:25:20;102074.09;;;0.18;100.00
56671;BME280;42545;50.054;8.306;2023-02-13T06:27:47;102068.63;;;0.15;100.00
56671;BME280;42545;50.054;8.306;2023-02-13T06:30:14;102074.47;;;0.13;100.00
56671;BME280;42545;50.054;8.306;2023-02-13T06:32:42;102075.06;;;0.10;100.00
56671;BME280;42545;50.054;8.306;2023-02-13T06:35:08;102069.59;;;0.07;100.00
56671;BME280;42545;50.054;8.306;2023-02-13T06:37:35;102073.88;;;0.07;100.00
56671;BME280;42545;50.054;8.306;2023-02-13T06:40:06;102074.03;;;0.08;100.00
56671;BME280;42545;50.054;8.306;2023-02-13T06:42:33;102072.47;;;0.10;100.00
56671;BME280;42545;50.054;8.306;2023-02-13T06:45:00;102073.53;;;0.12;100.00
56671;BME280;42545;50.054;8.306;2023-02-13T06:47:27;102078.09;;;0.15;100.00
56671;BME280;42545;50.054;8.306;2023-02-13T06:49:53;102074.31;;;0.11;100.00
56671;BME280;42545;50.054;8.306;2023-02-13T06:52:20;102074.78;;;0.07;100.00
56671;BME280;42545;50.054;8.306;2023-02-13T06:54:47;102092.84;;;0.06;100.00
56671;BME280;42545;50.054;8.306;2023-02-13T06:57:15;102083.06;;;0.03;100.00
56671;BME280;42545;50.054;8.306;2023-02-13T06:59:42;102091.50;;;0.01;100.00
56671;BME280;42545;50.054;8.306;2023-02-13T07:02:09;102093.94;;;-0.01;100.00
56671;BME280;42545;50.054;8.306;2023-02-13T07:04:37;102093.06;;;-0.02;100.00
56671;BME280;42545;50.054;8.306;2023-02-13T07:07:03;102096.53;;;-0.01;100.00
56671;BME280;42545;50.054;8.306;2023-02-13T07:09:30;102088.63;;;-0.03;100.00
56671;BME280;42545;50.054;8.306;2023-02-13T07:11:57;102087.06;;;-0.01;100.00
56671;BME280;42545;50.054;8.306;2023-02-13T07:14:26;102091.66;;;0.02;100.00
56671;BME280;42545;50.054;8.306;2023-02-13T07:16:52;102086.47;;;0.02;100.00
56671;BME280;42545;50.054;8.306;2023-02-13T07:19:19;102098.28;;;0.09;100.00
56671;BME280;42545;50.054;8.306;2023-02-13T07:21:45;102093.53;;;0.13;100.00
56671;BME280;42545;50.054;8.306;2023-02-13T07:24:13;102094.38;;;0.23;100.00
56671;BME280;42545;50.054;8.306;2023-02-13T07:26:39;102089.25;;;0.33;100.00
56671;BME280;42545;50.054;8.306;2023-02-13T07:29:06;102097.22;;;0.45;100.00
56671;BME280;42545;50.054;8.306;2023-02-13T07:31:34;102092.84;;;0.54;100.00
56671;BME280;42545;50.054;8.306;2023-02-13T07:34:01;102092.59;;;0.61;100.00
56671;BME280;42545;50.054;8.306;2023-02-13T07:36:28;102083.03;;;0.70;100.00
56671;BME280;42545;50.054;8.306;2023-02-13T07:38:55;102088.91;;;0.78;100.00
56671;BME280;42545;50.054;8.306;2023-02-13T07:41:21;102100.63;;;0.83;100.00
56671;BME280;42545;50.054;8.306;2023-02-13T07:43:51;102100.53;;;0.92;100.00
56671;BME280;42545;50.054;8.306;2023-02-13T07:46:17;102095.69;;;0.96;100.00
56671;BME280;42545;50.054;8.306;2023-02-13T07:48:46;102094.44;;;1.02;100.00
56671;BME280;42545;50.054;8.306;2023-02-13T07:51:13;102082.59;;;1.05;100.00
56671;BME280;42545;50.054;8.306;2023-02-13T07:53:40;102095.53;;;1.24;100.00
56671;BME280;42545;50.054;8.306;2023-02-13T07:56:08;102094.63;;;1.34;100.00
56671;BME280;42545;50.054;8.306;2023-02-13T07:58:35;102096.88;;;1.50;100.00
56671;BME280;42545;50.054;8.306;2023-02-13T08:01:05;102096.47;;;1.66;100.00
56671;BME280;42545;50.054;8.306;2023-02-13T08:03:32;102093.09;;;1.77;100.00
56671;BME280;42545;50.054;8.306;2023-02-13T08:06:01;102098.81;;;1.94;100.00
56671;BME280;42545;50.054;8.306;2023-02-13T08:08:28;102096.72;;;2.10;100.00
56671;BME280;42545;50.054;8.306;2023-02-13T08:10:55;102086.63;;;2.25;100.00
56671;BME280;42545;50.054;8.306;2023-02-13T08:13:40;102097.00;;;2.45;100.00
56671;BME280;42545;50.054;8.306;2023-02-13T08:16:07;102093.81;;;2.60;100.00
56671;BME280;42545;50.054;8.306;2023-02-13T08:18:34;102094.69;;;2.71;100.00
56671;BME280;42545;50.054;8.306;2023-02-13T08:21:03;102097.34;;;2.82;100.00
56671;BME280;42545;50.054;8.306;2023-02-13T08:23:31;102098.47;;;2.96;100.00
56671;BME280;42545;50.054;8.306;2023-02-13T08:25:59;102100.50;;;3.11;100.00
56671;BME280;42545;50.054;8.306;2023-02-13T08:28:28;102098.19;;;3.25;100.00
56671;BME280;42545;50.054;8.306;2023-02-13T08:30:56;102096.75;;;3.41;100.00
56671;BME280;42545;50.054;8.306;2023-02-13T08:33:22;102089.09;;;3.54;100.00
56671;BME280;42545;50.054;8.306;2023-02-13T08:35:49;102094.03;;;3.73;100.00
56671;BME280;42545;50.054;8.306;2023-02-13T08:38:17;102096.56;;;3.83;100.00
56671;BME280;42545;50.054;8.306;2023-02-13T08:40:45;102079.44;;;3.87;100.00
56671;BME280;42545;50.054;8.306;2023-02-13T08:43:13;102097.03;;;4.01;100.00
56671;BME280;42545;50.054;8.306;2023-02-13T08:45:40;102104.88;;;4.13;100.00
56671;BME280;42545;50.054;8.306;2023-02-13T08:48:07;102093.28;;;4.21;100.00
56671;BME280;42545;50.054;8.306;2023-02-13T08:50:33;102088.31;;;4.24;100.00
56671;BME280;42545;50.054;8.306;2023-02-13T08:53:00;102102.19;;;4.35;100.00
56671;BME280;42545;50.054;8.306;2023-02-13T08:55:28;102101.16;;;4.45;100.00
56671;BME280;42545;50.054;8.306;2023-02-13T08:57:59;102097.63;;;4.56;100.00
56671;BME280;42545;50.054;8.306;2023-02-13T09:00:26;102094.75;;;4.65;100.00
56671;BME280;42545;50.054;8.306;2023-02-13T09:02:53;102098.03;;;4.74;100.00
56671;BME280;42545;50.054;8.306;2023-02-13T09:05:19;102091.69;;;4.82;100.00
56671;BME280;42545;50.054;8.306;2023-02-13T09:07:46;102096.09;;;4.95;100.00
56671;BME280;42545;50.054;8.306;2023-02-13T09:10:13;102093.66;;;5.10;100.00
56671;BME280;42545;50.054;8.306;2023-02-13T09:12:41;102090.72;;;5.31;100.00
56671;BME280;42545;50.054;8.306;2023-02-13T09:15:08;102095.75;;;5.53;100.00
56671;BME280;42545;50.054;8.306;2023-02-13T09:17:35;102091.63;;;5.82;100.00
56671;BME280;42545;50.054;8.306;2023-02-13T09:20:02;102091.81;;;6.10;100.00
56671;BME280;42545;50.054;8.306;2023-02-13T09:22:30;102096.56;;;6.42;100.00
56671;BME280;42545;50.054;8.306;2023-02-13T09:24:58;102093.44;;;6.74;100.00
56671;BME280;42545;50.054;8.306;2023-02-13T09:27:28;102094.59;;;6.93;100.00
56671;BME280;42545;50.054;8.306;2023-02-13T09:29:56;102098.28;;;7.10;100.00
56671;BME280;42545;50.054;8.306;2023-02-13T09:32:22;102098.97;;;7.21;100.00
56671;BME280;42545;50.054;8.306;2023-02-13T09:34:49;102099.75;;;7.33;99.87
56671;BME280;42545;50.054;8.306;2023-02-13T09:37:15;102090.81;;;7.44;99.37
56671;BME280;42545;50.054;8.306;2023-02-13T09:39:43;102103.16;;;7.60;97.10
56671;BME280;42545;50.054;8.306;2023-02-13T09:42:16;102094.94;;;7.69;95.10
56671;BME280;42545;50.054;8.306;2023-02-13T09:44:45;102085.63;;;7.74;94.51
56671;BME280;42545;50.054;8.306;2023-02-13T09:47:19;102094.06;;;7.98;94.03
56671;BME280;42545;50.054;8.306;2023-02-13T09:49:50;102092.81;;;8.21;90.09
56671;BME280;42545;50.054;8.306;2023-02-13T09:52:19;102094.25;;;8.46;89.38
56671;BME280;42545;50.054;8.306;2023-02-13T09:54:45;102094.66;;;8.69;87.55
56671;BME280;42545;50.054;8.306;2023-02-13T09:57:17;102096.19;;;8.80;86.86
56671;BME280;42545;50.054;8.306;2023-02-13T09:59:56;102090.28;;;8.84;84.59
56671;BME280;42545;50.054;8.306;2023-02-13T10:02:40;102094.06;;;8.89;86.65
56671;BME280;42545;50.054;8.306;2023-02-13T10:05:19;102099.16;;;8.86;85.27
56671;BME280;42545;50.054;8.306;2023-02-13T10:07:58;102088.06;;;8.92;84.30
56671;BME280;42545;50.054;8.306;2023-02-13T10:10:33;102097.59;;;8.90;83.40
56671;BME280;42545;50.054;8.306;2023-02-13T10:13:14;102102.38;;;8.97;83.80
56671;BME280;42545;50.054;8.306;2023-02-13T10:15:51;102093.13;;;9.03;82.93
56671;BME280;42545;50.054;8.306;2023-02-13T10:18:24;102091.97;;;9.15;82.08
56671;BME280;42545;50.054;8.306;2023-02-13T10:20:58;102083.91;;;9.28;81.07
56671;BME280;42545;50.054;8.306;2023-02-13T10:23:29;102097.84;;;9.42;80.33
56671;BME280;42545;50.054;8.306;2023-02-13T10:26:00;102098.25;;;9.50;79.16
56671;BME280;42545;50.054;8.306;2023-02-13T10:28:32;102096.91;;;9.58;79.08
56671;BME280;42545;50.054;8.306;2023-02-13T10:31:05;102097.25;;;9.64;78.98
56671;BME280;42545;50.054;8.306;2023-02-13T10:33:40;102080.97;;;9.73;77.60
56671;BME280;42545;50.054;8.306;2023-02-13T10:36:15;102087.00;;;9.87;77.42
56671;BME280;42545;50.054;8.306;2023-02-13T10:38:44;102088.13;;;9.92;76.55
56671;BME280;42545;50.054;8.306;2023-02-13T10:41:23;102091.06;;;9.98;76.32
56671;BME280;42545;50.054;8.306;2023-02-13T10:44:01;102082.44;;;10.00;75.46
56671;BME280;42545;50.054;8.306;2023-02-13T10:46:37;102081.00;;;10.07;75.73
56671;BME280;42545;50.054;8.306;2023-02-13T10:49:27;102078.53;;;10.10;76.57
56671;BME280;42545;50.054;8.306;2023-02-13T10:52:02;102063.88;;;9.99;75.07
56671;BME280;42545;50.054;8.306;2023-02-13T10:54:44;102066.53;;;9.99;76.17
56671;BME280;42545;50.054;8.306;2023-02-13T10:57:16;102057.63;;;9.97;76.09
56671;BME280;42545;50.054;8.306;2023-02-13T10:59:57;102055.56;;;10.08;75.45
56671;BME280;42545;50.054;8.306;2023-02-13T11:02:29;102060.06;;;10.10;73.37
56671;BME280;42545;50.054;8.306;2023-02-13T11:05:03;102061.25;;;10.33;74.56
56671;BME280;42545;50.054;8.306;2023-02-13T11:07:37;102058.38;;;10.65;73.48
56671;BME280;42545;50.054;8.306;2023-02-13T11:10:13;102057.81;;;11.09;71.36
56671;BME280;42545;50.054;8.306;2023-02-13T11:12:41;102041.06;;;11.48;69.44
56671;BME280;42545;50.054;8.306;2023-02-13T11:15:20;102045.75;;;11.74;66.00
56671;BME280;42545;50.054;8.306;2023-02-13T11:17:49;102039.66;;;11.76;66.23
56671;BME280;42545;50.054;8.306;2023-02-13T11:20:31;102046.78;;;11.78;67.35
56671;BME280;42545;50.054;8.306;2023-02-13T11:23:16;102042.47;;;11.59;65.82
56671;BME280;42545;50.054;8.306;2023-02-13T11:25:54;102041.16;;;11.30;65.75
56671;BME280;42545;50.054;8.306;2023-02-13T11:28:22;102041.84;;;11.06;68.02
56671;BME280;42545;50.054;8.306;2023-02-13T11:30:49;102037.03;;;10.98;69.93
56671;BME280;42545;50.054;8.306;2023-02-13T11:33:22;102031.31;;;10.88;69.00
56671;BME280;42545;50.054;8.306;2023-02-13T11:36:04;102038.28;;;10.86;69.88
56671;BME280;42545;50.054;8.306;2023-02-13T11:38:31;102031.88;;;10.81;70.84
56671;BME280;42545;50.054;8.306;2023-02-13T11:41:07;102031.31;;;10.88;69.43
56671;BME280;42545;50.054;8.306;2023-02-13T11:43:36;102030.97;;;10.81;68.64
56671;BME280;42545;50.054;8.306;2023-02-13T11:46:06;102026.78;;;10.86;68.60
56671;BME280;42545;50.054;8.306;2023-02-13T11:48:34;102032.06;;;10.86;67.11
56671;BME280;42545;50.054;8.306;2023-02-13T11:51:04;102031.28;;;11.06;68.64
56671;BME280;42545;50.054;8.306;2023-02-13T11:53:35;102024.94;;;11.22;66.59
56671;BME280;42545;50.054;8.306;2023-02-13T11:56:06;102025.41;;;11.33;67.59
56671;BME280;42545;50.054;8.306;2023-02-13T11:58:33;102017.16;;;11.45;67.65
56671;BME280;42545;50.054;8.306;2023-02-13T12:01:22;102021.72;;;11.29;63.56
56671;BME280;42545;50.054;8.306;2023-02-13T12:04:02;102021.41;;;11.22;65.35
56671;BME280;42545;50.054;8.306;2023-02-13T12:06:31;102015.47;;;11.27;65.43
56671;BME280;42545;50.054;8.306;2023-02-13T12:09:04;102009.56;;;11.33;64.10
56671;BME280;42545;50.054;8.306;2023-02-13T12:11:37;102000.59;;;11.29;65.26
56671;BME280;42545;50.054;8.306;2023-02-13T12:14:10;102005.13;;;11.32;63.97
56671;BME280;42545;50.054;8.306;2023-02-13T12:16:40;102002.59;;;11.35;63.43
56671;BME280;42545;50.054;8.306;2023-02-13T12:19:12;102004.91;;;11.47;63.74
56671;BME280;42545;50.054;8.306;2023-02-13T12:21:55;102011.13;;;11.68;63.79
56671;BME280;42545;50.054;8.306;2023-02-13T12:24:36;102000.72;;;11.73;62.89
56671;BME280;42545;50.054;8.306;2023-02-13T12:27:17;102005.78;;;11.67;61.82
56671;BME280;42545;50.054;8.306;2023-02-13T12:29:58;102001.22;;;11.64;62.18
56671;BME280;42545;50.054;8.306;2023-02-13T12:32:38;101971.56;;;11.50;62.20
56671;BME280;42545;50.054;8.306;2023-02-13T12:35:25;101998.25;;;11.57;60.73
56671;BME280;42545;50.054;8.306;2023-02-13T12:37:59;101992.34;;;11.62;63.38
56671;BME280;42545;50.054;8.306;2023-02-13T12:40:52;101987.97;;;11.63;61.80
56671;BME280;42545;50.054;8.306;2023-02-13T12:43:49;101985.50;;;11.67;61.26
56671;BME280;42545;50.054;8.306;2023-02-13T12:46:27;101980.47;;;11.73;61.50
56671;BME280;42545;50.054;8.306;2023-02-13T12:49:03;101971.06;;;11.80;61.91
56671;BME280;42545;50.054;8.306;2023-02-13T12:51:41;101968.97;;;11.92;62.04
56671;BME280;42545;50.054;8.306;2023-02-13T12:54:26;101957.31;;;12.10;61.63
56671;BME280;42545;50.054;8.306;2023-02-13T12:57:05;101968.78;;;12.31;60.37
56671;BME280;42545;50.054;8.306;2023-02-13T12:59:40;101968.78;;;12.31;59.45
56671;BME280;42545;50.054;8.306;2023-02-13T13:02:43;101965.16;;;12.29;58.93
56671;BME280;42545;50.054;8.306;2023-02-13T13:05:22;101958.19;;;12.31;57.78
56671;BME280;42545;50.054;8.306;2023-02-13T13:08:04;101957.47;;;12.36;57.48
56671;BME280;42545;50.054;8.306;2023-02-13T13:10:46;101963.97;;;12.44;56.91
56671;BME280;42545;50.054;8.306;2023-02-13T13:13:25;101964.81;;;12.43;56.54